createdAt,value
2023-05-11T00:03:24.126Z,25.7
2023-05-11T00:09:00.803Z,25.4
2023-05-11T00:14:36.923Z,25.3
2023-05-11T00:19:58.423Z,25
2023-05-11T00:25:34.618Z,24.8
2023-05-11T00:30:55.613Z,24.6
2023-05-11T00:36:33.150Z,24.4
2023-05-11T00:42:12.394Z,24.1
2023-05-11T00:47:48.523Z,23.9
2023-05-11T00:53:24.925Z,23.7
2023-05-11T00:59:00.875Z,23.5
2023-05-11T01:04:37.869Z,23.4
2023-05-11T01:10:14.090Z,23.2
2023-05-11T01:16:06.129Z,23.1
2023-05-11T01:21:42.601Z,23
2023-05-11T01:27:18.684Z,22.9
2023-05-11T01:33:12.658Z,22.9
2023-05-11T01:39:04.136Z,22.9
2023-05-11T01:44:55.363Z,23.1
2023-05-11T01:50:32.145Z,23.2
2023-05-11T01:56:23.569Z,23.3
2023-05-11T02:02:15.121Z,23.5
2023-05-11T02:08:07.257Z,23.6
2023-05-11T02:13:58.624Z,23.7
2023-05-11T02:19:51.259Z,23.8
2023-05-11T02:25:42.775Z,23.8
2023-05-11T02:31:19.149Z,23.9
2023-05-11T02:37:11.200Z,23.9
2023-05-11T02:43:03.497Z,23.9
2023-05-11T02:48:55.622Z,23.9
2023-05-11T02:54:47.634Z,23.9
2023-05-11T03:00:39.829Z,23.8
2023-05-11T03:06:33.783Z,23.8
2023-05-11T03:12:27.526Z,23.8
2023-05-11T03:18:19.420Z,23.7
2023-05-11T03:24:11.066Z,23.6
2023-05-11T03:30:02.707Z,23.6
2023-05-11T03:35:57.614Z,23.5
2023-05-11T03:41:48.974Z,23.4
2023-05-11T03:47:42.928Z,23.3
2023-05-11T03:53:35.122Z,23.3
2023-05-11T03:59:26.555Z,23.2
2023-05-11T04:05:19.786Z,23.1
2023-05-11T04:11:11.171Z,23
2023-05-11T04:17:03.166Z,22.9
2023-05-11T04:22:55.261Z,22.8
2023-05-11T04:28:46.649Z,22.8
2023-05-11T04:34:38.005Z,22.6
2023-05-11T04:40:30.236Z,22.5
2023-05-11T04:46:20.894Z,22.4
2023-05-11T04:51:57.841Z,22.3
2023-05-11T04:57:34.327Z,22.3
2023-05-11T05:03:10.691Z,22.1
2023-05-11T05:08:49.205Z,22.1
2023-05-11T05:14:40.162Z,21.9
2023-05-11T05:20:31.728Z,21.9
2023-05-11T05:26:23.168Z,21.8
2023-05-11T05:32:00.251Z,21.7
2023-05-11T05:37:36.598Z,21.7
2023-05-11T05:43:28.166Z,21.6
2023-05-11T05:49:21.952Z,21.5
2023-05-11T05:55:13.281Z,21.4
2023-05-11T06:01:07.089Z,21.4
2023-05-11T06:07:02.517Z,21.4
2023-05-11T06:12:56.967Z,21.3
2023-05-11T06:18:49.083Z,21.3
2023-05-11T06:24:40.220Z,21.3
2023-05-11T06:30:19.701Z,21.2
2023-05-11T06:41:33.450Z,21.1
2023-05-11T06:47:26.131Z,21.1
2023-05-11T06:53:21.560Z,21
2023-05-11T06:59:12.868Z,21
2023-05-11T07:05:05.108Z,20.9
2023-05-11T07:10:57.576Z,20.9
2023-05-11T07:16:49.984Z,20.9
2023-05-11T07:22:26.541Z,20.9
2023-05-11T07:27:47.681Z,20.9
2023-05-11T07:33:25.304Z,20.8
2023-05-11T07:39:02.046Z,20.8
2023-05-11T07:44:56.659Z,20.8
2023-05-11T07:51:22.828Z,20.8
2023-05-11T07:56:59.659Z,20.8
2023-05-11T08:02:52.184Z,20.7
2023-05-11T08:08:47.186Z,20.7
2023-05-11T08:14:23.945Z,20.7
2023-05-11T08:20:16.626Z,20.7
2023-05-11T08:26:11.577Z,20.7
2023-05-11T08:31:50.877Z,20.7
2023-05-11T08:37:38.647Z,20.6
2023-05-11T08:43:31.774Z,20.6
2023-05-11T08:49:42.634Z,20.6
2023-05-11T08:55:34.703Z,20.6
2023-05-11T09:01:27.105Z,20.6
2023-05-11T09:07:19.737Z,20.6
2023-05-11T09:12:58.251Z,20.6
2023-05-11T09:19:13.507Z,20.6
2023-05-11T09:24:34.575Z,20.6
2023-05-11T09:30:41.712Z,20.5
2023-05-11T09:36:22.128Z,20.5
2023-05-11T09:42:26.201Z,20.5
2023-05-11T09:48:22.179Z,20.5
2023-05-11T09:54:17.611Z,20.5
2023-05-11T09:59:53.255Z,20.5
2023-05-11T10:05:29.582Z,20.5
2023-05-11T10:11:24.794Z,20.5
2023-05-11T10:17:03.415Z,20.4
2023-05-11T10:22:56.016Z,20.4
2023-05-11T10:28:49.564Z,20.4
2023-05-11T10:34:41.578Z,20.4
2023-05-11T10:40:33.300Z,20.4
2023-05-11T10:46:26.965Z,20.4
2023-05-11T10:52:21.522Z,20.4
2023-05-11T10:58:15.051Z,20.4
2023-05-11T11:04:07.412Z,20.4
2023-05-11T11:09:59.068Z,20.4
2023-05-11T11:15:52.150Z,20.4
2023-05-11T11:21:44.365Z,20.4
2023-05-11T11:27:34.944Z,20.4
2023-05-11T11:33:27.056Z,20.4
2023-05-11T11:39:18.792Z,20.4
2023-05-11T11:45:32.970Z,20.4
2023-05-11T11:51:25.318Z,20.4
2023-05-11T11:57:17.733Z,20.3
2023-05-11T12:03:10.835Z,20.4
2023-05-11T12:09:04.308Z,20.4
2023-05-11T12:14:56.159Z,20.3
2023-05-11T12:20:47.678Z,20.4
2023-05-11T12:26:39.667Z,20.3
2023-05-11T12:32:31.323Z,20.3
2023-05-11T12:38:22.741Z,20.3
2023-05-11T12:44:13.787Z,20.3
2023-05-11T12:50:05.871Z,20.3
2023-05-11T12:55:57.223Z,20.3
2023-05-11T13:01:49.017Z,20.3
2023-05-11T13:07:25.780Z,20.3
2023-05-11T13:13:19.943Z,20.3
2023-05-11T13:19:13.013Z,20.3
2023-05-11T13:25:05.569Z,20.3
2023-05-11T13:31:09.397Z,20.3
2023-05-11T13:36:45.875Z,20.3
2023-05-11T13:42:37.093Z,20.3
2023-05-11T13:48:32.700Z,20.3
2023-05-11T13:54:24.502Z,20.3
2023-05-11T14:00:15.788Z,20.3
2023-05-11T14:06:28.475Z,20.3
2023-05-11T14:12:32.973Z,20.2
2023-05-11T14:18:26.411Z,20.3
2023-05-11T14:24:26.444Z,20.2
2023-05-11T14:30:21.287Z,20.2
2023-05-11T14:36:14.832Z,20.2
2023-05-11T14:42:07.553Z,20.2
2023-05-11T14:48:00.147Z,20.2
2023-05-11T14:53:51.854Z,20.2
2023-05-11T14:59:51.550Z,20.2
2023-05-11T15:05:51.809Z,20.2
2023-05-11T15:11:59.337Z,20.2
2023-05-11T15:17:51.774Z,20.2
2023-05-11T15:23:44.997Z,20.1
2023-05-11T15:29:37.637Z,20.1
2023-05-11T15:35:48.077Z,20.1
2023-05-11T15:41:41.957Z,20.1
2023-05-11T15:47:34.716Z,20.1
2023-05-11T15:53:14.218Z,20.1
2023-05-11T15:59:08.024Z,20.1
2023-05-11T16:05:03.527Z,20.1
2023-05-11T16:10:57.011Z,20.1
2023-05-11T16:16:52.224Z,20.1
2023-05-11T16:22:48.522Z,20.1
2023-05-11T16:28:44.860Z,20.1
2023-05-11T16:34:54.367Z,20.1
2023-05-11T16:40:51.327Z,20.1
2023-05-11T16:46:45.809Z,20.1
2023-05-11T16:52:45.324Z,20.1
2023-05-11T16:58:45.469Z,20.1
2023-05-11T17:04:48.229Z,20.1
2023-05-11T17:10:48.538Z,20.1
2023-05-11T17:16:49.569Z,20
2023-05-11T17:22:50.042Z,20
2023-05-11T17:29:02.674Z,20
2023-05-11T17:35:36.337Z,20
2023-05-11T17:41:45.678Z,20
2023-05-11T17:47:48.090Z,20
2023-05-11T17:53:48.830Z,20
2023-05-11T17:59:49.588Z,20
2023-05-11T18:06:04.882Z,20
2023-05-11T18:12:06.469Z,20
2023-05-11T18:17:54.811Z,20
2023-05-11T18:23:55.721Z,19.9
2023-05-11T18:29:55.576Z,19.9
2023-05-11T18:35:40.204Z,19.9
2023-05-11T18:41:42.656Z,19.9
2023-05-11T18:47:42.193Z,19.9
2023-05-11T18:53:46.131Z,19.9
2023-05-11T19:00:01.615Z,19.9
2023-05-11T19:06:14.036Z,19.9
2023-05-11T19:12:17.837Z,19.9
2023-05-11T19:18:20.448Z,19.9
2023-05-11T19:24:24.808Z,19.9
2023-05-11T19:30:33.373Z,19.9
2023-05-11T19:36:36.246Z,19.9
2023-05-11T19:43:28.591Z,19.9
2023-05-11T19:49:29.059Z,19.9
2023-05-11T19:55:33.572Z,19.9
2023-05-11T20:05:33.467Z,19.9
2023-05-11T20:11:37.385Z,19.9
2023-05-11T20:17:38.241Z,19.9
2023-05-11T20:23:39.343Z,19.9
2023-05-11T20:29:41.078Z,19.9
2023-05-11T20:35:55.469Z,19.9
2023-05-11T20:41:54.520Z,19.9
2023-05-11T20:47:55.080Z,19.9
2023-05-11T20:54:14.101Z,19.9
2023-05-11T21:00:21.450Z,19.9
2023-05-11T21:06:23.040Z,19.9
2023-05-11T21:12:20.616Z,19.9
2023-05-11T21:18:19.335Z,19.8
2023-05-11T21:24:15.714Z,19.8
2023-05-11T21:29:54.541Z,19.8
2023-05-11T21:35:17.645Z,19.8
2023-05-11T21:40:55.549Z,19.8
2023-05-11T21:46:15.700Z,19.8
2023-05-11T21:51:51.649Z,19.8
2023-05-11T21:57:28.144Z,19.8
2023-05-11T22:03:05.396Z,19.8
2023-05-11T22:08:49.449Z,19.8
2023-05-11T22:14:26.375Z,19.8
2023-05-11T22:20:02.139Z,19.8
2023-05-11T22:25:37.921Z,19.8
2023-05-11T22:30:59.020Z,19.8
2023-05-11T22:36:50.821Z,19.8
2023-05-11T22:41:55.872Z,19.8
2023-05-11T22:47:17.505Z,19.8
2023-05-11T22:52:38.040Z,19.8
2023-05-11T22:57:58.838Z,19.8
2023-05-11T23:03:21.699Z,19.8
2023-05-11T23:08:42.304Z,19.8
2023-05-11T23:14:17.723Z,19.8
2023-05-11T23:19:39.848Z,19.8
2023-05-11T23:24:44.727Z,19.8
2023-05-11T23:30:04.989Z,19.8
2023-05-11T23:35:27.206Z,19.8
2023-05-11T23:40:48.131Z,19.8
2023-05-11T23:46:09.184Z,19.8
2023-05-11T23:51:46.041Z,19.8
2023-05-11T23:57:06.537Z,19.8
